Time;durP1;ratioP1;P1;durP2;ratioP2;P2;SDS_P1;SDS_P2;PMS_P1;PMS_P2;Temp;Humidity;BMP_temperature;BMP_pressure;BME280_temperature;BME280_humidity;BME280_pressure;Samples;Min_cycle;Max_cycle;Signal;HPM_P1;HPM_P2
2022/09/11 00:01:34;;;;;;;2.00;0.70;;;;;;;16.63;68.74;99715.25;4449896;32;34153;-82
2022/09/11 00:04:02;;;;;;;2.78;0.60;;;;;;;16.47;69.65;99715.78;4452066;32;32692;-83
2022/09/11 00:06:30;;;;;;;2.17;0.60;;;;;;;17.60;65.38;99710.81;4452690;32;34003;-83
2022/09/11 00:09:00;;;;;;;2.35;0.50;;;;;;;17.53;65.22;99717.66;4452748;32;34164;-82
2022/09/11 00:11:31;;;;;;;1.42;0.60;;;;;;;17.77;64.64;99708.41;4452930;32;34189;-81
2022/09/11 00:13:59;;;;;;;1.92;0.70;;;;;;;17.98;63.63;99707.84;4452790;32;33223;-84
2022/09/11 00:16:33;;;;;;;0.75;0.50;;;;;;;17.59;65.01;99703.78;4446664;32;33793;-83
2022/09/11 00:19:29;;;;;;;0.85;0.57;;;;;;;17.28;66.23;99706.81;4453307;32;34741;-84
2022/09/11 00:21:56;;;;;;;;;;;;;;;16.88;68.07;99700.91;4451312;32;33358;-83
2022/09/11 00:24:24;;;;;;;11.27;1.27;;;;;;;16.47;70.03;99698.38;4450565;32;34901;-82
2022/09/11 00:26:51;;;;;;;4.47;0.70;;;;;;;17.27;66.62;99688.47;4452472;32;34031;-83
2022/09/11 00:29:19;;;;;;;2.28;0.70;;;;;;;17.23;66.78;99697.09;4452137;32;34055;-83
2022/09/11 00:31:48;;;;;;;3.95;0.77;;;;;;;17.07;66.74;99689.03;4447611;32;34112;-82
2022/09/11 00:34:16;;;;;;;3.58;0.73;;;;;;;16.95;68.00;99690.56;4449728;32;34604;-82
2022/09/11 00:36:43;;;;;;;1.55;0.68;;;;;;;16.59;70.03;99697.75;4446956;32;33954;-83
2022/09/11 00:39:13;;;;;;;1.42;0.65;;;;;;;16.84;68.50;99693.88;4450064;32;34937;-85
2022/09/11 00:41:43;;;;;;;2.97;0.70;;;;;;;16.39;70.47;99689.50;4451495;32;33570;-84
2022/09/11 00:44:11;;;;;;;1.95;0.62;;;;;;;16.56;69.72;99692.44;4452145;32;34652;-83
2022/09/11 00:46:45;;;;;;;0.88;0.52;;;;;;;15.78;72.28;99703.91;4452213;32;33981;-83
2022/09/11 00:49:29;;;;;;;2.75;0.60;;;;;;;16.77;68.76;99701.56;4452254;32;33607;-85
2022/09/11 00:52:00;;;;;;;1.77;0.60;;;;;;;17.00;67.51;99699.38;4451044;32;33958;-84
2022/09/11 00:54:31;;;;;;;1.00;0.50;;;;;;;17.34;65.97;99695.53;4451626;32;34732;-83
2022/09/11 00:57:00;;;;;;;2.03;0.70;;;;;;;17.56;64.52;99690.63;4451739;32;33793;-85
2022/09/11 00:59:30;;;;;;;1.95;0.50;;;;;;;17.63;64.01;99692.50;4451770;32;33939;-84
2022/09/11 01:01:57;;;;;;;2.62;0.70;;;;;;;17.30;64.80;99696.37;4449822;32;33268;-84
2022/09/11 01:04:26;;;;;;;1.98;0.70;;;;;;;16.38;67.68;99694.69;4451452;32;33591;-85
2022/09/11 01:06:55;;;;;;;0.80;0.50;;;;;;;16.26;69.15;99693.63;4451502;32;34499;-85
2022/09/11 01:09:25;;;;;;;4.07;0.60;;;;;;;16.60;67.72;99694.25;4450545;32;34704;-83
2022/09/11 01:12:05;;;;;;;1.65;0.50;;;;;;;16.70;67.56;99696.19;4449808;32;33609;-83
2022/09/11 01:14:59;;;;;;;1.55;0.52;;;;;;;16.24;69.70;99692.69;4452766;32;34241;-85
2022/09/11 01:17:46;;;;;;;1.62;0.52;;;;;;;16.88;67.45;99692.16;4452884;32;32743;-84
2022/09/11 01:20:29;;;;;;;2.87;0.68;;;;;;;16.28;69.58;99678.84;4452896;32;33991;-83
2022/09/11 01:23:18;;;;;;;1.12;0.52;;;;;;;16.71;68.01;99677.03;4446855;32;33322;-83
2022/09/11 01:26:10;;;;;;;1.10;0.57;;;;;;;17.24;65.82;99677.94;4453795;32;34223;-84
2022/09/11 01:28:39;;;;;;;2.85;0.60;;;;;;;16.29;69.90;99680.59;4451359;32;33953;-83
2022/09/11 01:31:10;;;;;;;1.55;0.60;;;;;;;16.03;70.79;99673.97;4452678;32;34039;-83
2022/09/11 01:33:45;;;;;;;2.80;0.62;;;;;;;16.44;68.63;99681.78;4453366;32;33868;-81
2022/09/11 01:36:16;;;;;;;;;;;;;;;15.88;71.42;99680.63;4454379;32;33503;-82
2022/09/11 01:38:50;;;;;;;1.15;0.50;;;;;;;15.66;72.50;99674.00;4454652;32;33786;-81
2022/09/11 01:41:22;;;;;;;2.57;0.50;;;;;;;16.35;69.56;99665.91;4453526;32;34282;-83
2022/09/11 01:43:55;;;;;;;3.58;0.60;;;;;;;16.47;68.39;99660.88;4453252;32;34247;-84
2022/09/11 01:46:24;;;;;;;2.20;0.80;;;;;;;16.65;68.79;99658.63;4454031;32;34509;-86
2022/09/11 01:48:59;;;;;;;2.50;0.82;;;;;;;16.95;67.53;99651.31;4453428;32;34588;-82
2022/09/11 01:51:29;;;;;;;1.50;0.70;;;;;;;16.83;68.09;99659.84;4452271;32;33937;-85
2022/09/11 01:53:58;;;;;;;2.42;0.50;;;;;;;15.91;71.80;99651.94;4452703;32;33522;-85
2022/09/11 01:56:34;;;;;;;1.60;0.62;;;;;;;16.01;71.41;99653.06;4453440;32;31804;-82
2022/09/11 01:59:07;;;;;;;2.65;0.80;;;;;;;17.00;67.55;99653.16;4452437;32;34122;-81
2022/09/11 02:01:37;;;;;;;2.87;0.70;;;;;;;16.92;67.13;99638.16;4451724;32;34175;-83
2022/09/11 02:04:10;;;;;;;5.25;0.77;;;;;;;16.78;67.58;99643.13;4453019;32;33787;-82
2022/09/11 02:06:45;;;;;;;1.40;0.60;;;;;;;16.52;68.22;99643.56;4451954;32;33749;-83
2022/09/11 02:09:17;;;;;;;2.30;0.68;;;;;;;16.17;69.72;99650.72;4448488;32;33848;-83
2022/09/11 02:11:46;;;;;;;1.60;0.62;;;;;;;15.89;70.35;99651.03;4452269;32;33881;-84
2022/09/11 02:14:28;;;;;;;1.95;0.60;;;;;;;15.97;70.51;99652.94;4452182;32;33203;-87
2022/09/11 02:17:05;;;;;;;1.37;0.80;;;;;;;16.04;70.21;99652.22;4451599;32;33614;-83
2022/09/11 02:19:32;;;;;;;2.72;0.62;;;;;;;15.92;71.00;99651.13;4452979;32;34780;-83
2022/09/11 02:22:00;;;;;;;3.50;0.80;;;;;;;15.08;74.23;99655.28;4451002;32;34100;-83
2022/09/11 02:24:27;;;;;;;1.52;0.68;;;;;;;15.39;74.75;99653.38;4452738;32;34413;-84
2022/09/11 02:27:03;;;;;;;1.50;0.68;;;;;;;14.74;77.63;99648.38;4448278;32;33458;-83
2022/09/11 02:29:32;;;;;;;2.95;0.80;;;;;;;15.54;74.08;99651.13;4452063;32;33631;-87
2022/09/11 02:32:02;;;;;;;1.62;0.70;;;;;;;15.42;74.59;99637.81;4449462;32;34234;-88
2022/09/11 02:34:34;;;;;;;0.93;0.47;;;;;;;15.23;76.40;99638.25;4450292;32;33364;-83
2022/09/11 02:37:09;;;;;;;1.37;0.70;;;;;;;14.64;77.57;99644.66;4461440;32;34673;-84
2022/09/11 02:40:02;;;;;;;1.20;0.50;;;;;;;14.43;79.03;99644.03;4451391;32;32549;-85
2022/09/11 02:42:46;;;;;;;2.20;0.70;;;;;;;14.36;79.45;99651.69;4450853;32;33632;-85
2022/09/11 02:45:53;;;;;;;1.15;0.60;;;;;;;14.25;79.68;99650.50;4453767;32;33714;-84
2022/09/11 02:48:39;;;;;;;1.00;0.60;;;;;;;14.35;79.37;99652.53;4443559;32;33801;-83
2022/09/11 02:51:31;;;;;;;1.65;0.65;;;;;;;14.31;79.61;99661.12;4453495;32;33750;-82
2022/09/11 02:54:05;;;;;;;2.25;0.73;;;;;;;14.44;79.18;99653.62;4451522;32;34132;-82
2022/09/11 02:56:51;;;;;;;1.48;0.62;;;;;;;14.92;77.46;99655.75;4452317;32;33043;-82
2022/09/11 02:59:27;;;;;;;1.65;0.60;;;;;;;15.09;76.08;99644.00;4452462;32;33887;-83
2022/09/11 03:01:58;;;;;;;2.70;0.57;;;;;;;15.32;74.87;99656.72;4450191;32;33833;-83
2022/09/11 03:04:28;;;;;;;1.20;0.60;;;;;;;16.27;71.33;99653.56;4452761;32;33988;-80
2022/09/11 03:06:57;;;;;;;1.30;0.55;;;;;;;16.39;70.46;99657.25;4452062;32;34173;-82
2022/09/11 03:09:24;;;;;;;1.40;0.70;;;;;;;16.39;69.87;99652.03;4451410;32;33819;-79
2022/09/11 03:11:54;;;;;;;4.20;0.75;;;;;;;16.22;70.33;99655.19;4450424;32;33704;-81
2022/09/11 03:14:21;;;;;;;1.33;0.60;;;;;;;15.99;71.56;99651.25;4451175;32;32998;-81
2022/09/11 03:16:49;;;;;;;1.35;0.55;;;;;;;15.89;71.80;99655.38;4451269;32;34124;-83
2022/09/11 03:19:17;;;;;;;1.92;0.60;;;;;;;15.81;72.91;99659.56;4452995;32;34025;-82
2022/09/11 03:21:45;;;;;;;2.92;0.60;;;;;;;15.11;75.70;99652.75;4452710;32;34464;-83
2022/09/11 03:24:14;;;;;;;1.73;0.70;;;;;;;15.08;76.55;99657.87;4450934;32;34093;-85
2022/09/11 03:26:43;;;;;;;1.92;0.80;;;;;;;14.89;78.16;99651.37;4451575;32;33485;-82
2022/09/11 03:29:10;;;;;;;0.82;0.60;;;;;;;15.02;77.60;99652.53;4451227;32;32470;-82
2022/09/11 03:31:38;;;;;;;1.65;0.70;;;;;;;14.72;78.55;99653.53;4451151;32;33897;-84
2022/09/11 03:34:06;;;;;;;2.03;0.60;;;;;;;14.64;79.34;99655.06;4452016;32;33672;-80
2022/09/11 03:36:34;;;;;;;2.90;0.73;;;;;;;15.82;74.35;99649.16;4452341;32;34541;-82
2022/09/11 03:39:02;;;;;;;2.50;0.60;;;;;;;16.54;70.96;99649.69;4449555;32;33979;-84
2022/09/11 03:41:30;;;;;;;1.37;0.60;;;;;;;16.23;72.33;99646.50;4448261;32;34523;-81
2022/09/11 03:43:57;;;;;;;1.35;0.65;;;;;;;16.57;70.46;99652.34;4451682;32;34667;-83
2022/09/11 03:46:25;;;;;;;1.15;0.60;;;;;;;16.45;70.34;99649.53;4452763;32;33560;-82
2022/09/11 03:48:53;;;;;;;1.40;0.57;;;;;;;16.79;69.36;99652.75;4452521;32;33721;-83
2022/09/11 03:51:21;;;;;;;1.10;0.60;;;;;;;16.50;70.51;99650.50;4451949;32;34570;-83
2022/09/11 03:53:48;;;;;;;2.95;0.65;;;;;;;16.42;70.90;99654.72;4451766;32;33951;-84
2022/09/11 03:56:16;;;;;;;1.27;0.65;;;;;;;15.23;75.68;99667.81;4450338;32;33635;-81
2022/09/11 03:58:44;;;;;;;1.98;0.70;;;;;;;16.05;72.98;99662.72;4451592;32;33978;-83
2022/09/11 04:01:13;;;;;;;1.45;0.70;;;;;;;16.26;72.84;99662.25;4448624;32;34043;-82
2022/09/11 04:03:41;;;;;;;1.60;0.80;;;;;;;16.04;73.17;99666.16;4451737;32;34710;-83
2022/09/11 04:06:09;;;;;;;1.50;0.60;;;;;;;15.96;74.22;99665.13;4452766;32;33675;-82
2022/09/11 04:08:38;;;;;;;1.27;0.70;;;;;;;16.39;71.79;99673.81;4448582;32;34966;-84
2022/09/11 04:11:10;;;;;;;2.70;0.82;;;;;;;16.85;69.93;99668.59;4450551;32;33950;-82
2022/09/11 04:13:39;;;;;;;2.20;0.70;;;;;;;17.15;68.31;99668.19;4451051;32;34593;-84
2022/09/11 04:16:13;;;;;;;0.95;0.60;;;;;;;16.96;68.51;99669.66;4450764;32;33095;-83
2022/09/11 04:18:42;;;;;;;1.98;0.85;;;;;;;17.08;67.94;99669.84;4451284;32;33744;-80
2022/09/11 04:21:12;;;;;;;6.20;0.90;;;;;;;16.89;68.79;99671.28;4450615;32;33959;-81
2022/09/11 04:23:40;;;;;;;2.17;1.05;;;;;;;16.71;69.74;99671.81;4447205;32;34828;-82
2022/09/11 04:26:15;;;;;;;1.92;0.70;;;;;;;16.96;68.78;99672.28;4452291;32;33336;-82
2022/09/11 04:28:44;;;;;;;3.33;0.80;;;;;;;17.20;67.75;99681.37;4449998;32;34609;-80
2022/09/11 04:31:12;;;;;;;2.80;0.90;;;;;;;17.10;67.93;99675.97;4450789;32;33879;-83
2022/09/11 04:33:40;;;;;;;2.83;0.60;;;;;;;16.92;68.79;99680.94;4449899;32;32429;-82
2022/09/11 04:36:11;;;;;;;3.87;1.00;;;;;;;16.33;71.37;99675.44;4450787;32;33805;-80
2022/09/11 04:38:40;;;;;;;3.72;1.00;;;;;;;16.36;71.38;99678.09;4451652;32;32749;-84
2022/09/11 04:41:09;;;;;;;2.20;0.70;;;;;;;16.06;72.77;99679.25;4450681;32;33892;-84
2022/09/11 04:43:37;;;;;;;1.65;0.95;;;;;;;15.94;73.61;99674.66;4451818;32;34492;-84
2022/09/11 04:46:15;;;;;;;2.08;0.80;;;;;;;15.85;74.39;99679.69;4447753;32;33548;-86
2022/09/11 04:48:47;;;;;;;2.35;1.00;;;;;;;15.83;74.74;99678.78;4454618;32;32435;-85
2022/09/11 04:51:20;;;;;;;3.65;0.85;;;;;;;15.59;75.58;99677.34;4454885;32;34440;-82
2022/09/11 04:53:49;;;;;;;1.75;0.80;;;;;;;15.41;76.21;99683.03;4453448;32;34906;-82
2022/09/11 04:56:18;;;;;;;3.30;0.95;;;;;;;15.26;77.13;99682.66;4453369;32;33506;-86
2022/09/11 04:58:53;;;;;;;2.12;0.93;;;;;;;15.20;77.81;99677.28;4453129;32;34524;-83
2022/09/11 05:01:22;;;;;;;3.28;0.90;;;;;;;15.09;78.35;99672.72;4452412;32;33695;-85
2022/09/11 05:03:51;;;;;;;2.62;1.12;;;;;;;15.04;78.93;99676.91;4452282;32;33900;-84
2022/09/11 05:06:18;;;;;;;2.67;0.98;;;;;;;15.11;78.33;99680.56;4452602;32;33528;-84
2022/09/11 05:08:46;;;;;;;1.67;0.90;;;;;;;15.22;77.97;99680.81;4454564;32;33865;-84
2022/09/11 05:11:16;;;;;;;2.15;1.25;;;;;;;15.31;77.51;99681.03;4453798;32;34667;-84
2022/09/11 05:13:43;;;;;;;4.95;1.40;;;;;;;15.36;77.41;99674.22;4451499;32;32739;-84
2022/09/11 05:16:14;;;;;;;2.12;0.90;;;;;;;15.31;77.97;99668.88;4450449;32;33264;-84
2022/09/11 05:18:44;;;;;;;3.53;1.15;;;;;;;15.32;78.00;99672.38;4453047;32;32967;-84
2022/09/11 05:21:13;;;;;;;2.70;1.02;;;;;;;15.37;78.25;99680.31;4452793;32;34739;-85
2022/09/11 05:23:41;;;;;;;3.40;1.30;;;;;;;15.30;78.59;99681.91;4451005;32;35152;-85
2022/09/11 05:26:21;;;;;;;1.98;0.98;;;;;;;15.34;78.94;99695.06;4449324;32;33502;-84
2022/09/11 05:29:03;;;;;;;1.90;0.90;;;;;;;15.53;78.00;99698.97;4451954;32;34625;-83
2022/09/11 05:31:31;;;;;;;2.80;1.10;;;;;;;15.53;77.88;99703.34;4450439;32;34788;-83
2022/09/11 05:34:02;;;;;;;3.10;1.00;;;;;;;15.79;76.85;99705.69;4451035;32;32749;-87
2022/09/11 05:36:34;;;;;;;2.15;1.17;;;;;;;16.28;74.95;99707.59;4451069;32;34339;-85
2022/09/11 05:39:02;;;;;;;3.40;0.93;;;;;;;16.06;75.75;99710.63;4452518;32;34514;-83
2022/09/11 05:41:31;;;;;;;2.22;0.77;;;;;;;15.75;77.32;99704.72;4451810;32;33979;-84
2022/09/11 05:44:00;;;;;;;2.87;1.10;;;;;;;16.31;74.71;99712.00;4448975;32;33464;-84
2022/09/11 05:46:29;;;;;;;1.65;1.00;;;;;;;16.43;74.32;99713.97;4447402;32;34274;-82
2022/09/11 05:48:58;;;;;;;2.78;1.42;;;;;;;16.46;74.06;99711.44;4450575;32;33478;-83
2022/09/11 05:51:26;;;;;;;3.47;0.90;;;;;;;16.74;72.62;99711.94;4451245;32;33616;-84
2022/09/11 05:53:55;;;;;;;2.95;0.93;;;;;;;16.80;71.51;99705.06;4451114;32;32364;-84
2022/09/11 05:56:23;;;;;;;3.53;1.02;;;;;;;17.36;69.79;99706.94;4453933;32;33986;-83
2022/09/11 05:58:51;;;;;;;2.15;0.93;;;;;;;16.87;72.01;99719.19;4446953;32;34435;-84
2022/09/11 06:01:22;;;;;;;2.15;0.90;;;;;;;16.40;73.98;99717.41;4451023;32;33963;-85
2022/09/11 06:03:51;;;;;;;3.62;0.88;;;;;;;17.00;72.47;99721.19;4453776;32;34293;-87
2022/09/11 06:06:21;;;;;;;5.30;1.00;;;;;;;16.75;72.50;99724.19;4453081;32;33668;-86
2022/09/11 06:08:50;;;;;;;2.05;0.70;;;;;;;17.63;68.25;99723.94;4451437;32;33903;-83
2022/09/11 06:11:19;;;;;;;2.75;0.85;;;;;;;16.55;73.14;99732.50;4452202;32;33813;-85
2022/09/11 06:13:48;;;;;;;2.25;0.88;;;;;;;16.36;74.03;99733.00;4446809;32;34751;-88
2022/09/11 06:16:22;;;;;;;2.55;0.90;;;;;;;16.16;73.88;99733.47;4448581;32;34089;-82
2022/09/11 06:18:51;;;;;;;3.03;0.90;;;;;;;16.00;74.34;99731.38;4449534;32;33709;-81
2022/09/11 06:21:21;;;;;;;1.83;0.93;;;;;;;16.49;73.54;99732.38;4446441;32;33055;-85
2022/09/11 06:23:50;;;;;;;1.80;0.85;;;;;;;16.25;74.77;99732.78;4448661;32;33634;-83
2022/09/11 06:26:23;;;;;;;5.87;1.05;;;;;;;16.77;72.97;99736.44;4451716;32;33377;-86
2022/09/11 06:28:52;;;;;;;3.00;1.37;;;;;;;16.84;72.66;99729.59;4452985;32;34609;-88
2022/09/11 06:31:23;;;;;;;2.20;0.90;;;;;;;16.67;72.74;99743.22;4450300;32;33639;-85
2022/09/11 06:33:50;;;;;;;2.50;1.00;;;;;;;16.59;72.43;99723.00;4451834;32;32963;-88
2022/09/11 06:36:20;;;;;;;2.78;0.90;;;;;;;16.90;71.96;99729.69;4450696;32;35109;-85
2022/09/11 06:38:53;;;;;;;4.15;1.87;;;;;;;16.77;72.62;99722.47;4452311;32;33759;-85
2022/09/11 06:41:23;;;;;;;2.25;0.70;;;;;;;18.09;67.66;99719.37;4452243;32;34427;-81
2022/09/11 06:43:52;;;;;;;3.15;0.80;;;;;;;17.68;68.40;99717.03;4448672;32;34201;-86
2022/09/11 06:46:21;;;;;;;1.75;0.70;;;;;;;17.44;70.20;99713.19;4463655;32;33257;-85
2022/09/11 06:48:49;;;;;;;2.37;1.02;;;;;;;16.76;72.14;99725.94;4453505;32;33880;-85
2022/09/11 06:51:22;;;;;;;4.10;1.20;;;;;;;17.05;72.01;99714.28;4453039;32;34805;-87
2022/09/11 06:53:58;;;;;;;2.50;0.80;;;;;;;17.10;70.64;99706.53;4450957;32;33644;-86
2022/09/11 06:56:26;;;;;;;1.92;0.77;;;;;;;17.59;70.20;99719.50;4433200;32;32617;-84
2022/09/11 06:58:55;;;;;;;2.60;1.00;;;;;;;17.76;69.28;99715.38;4450356;32;34473;-85
2022/09/11 07:01:23;;;;;;;2.05;0.98;;;;;;;17.85;68.32;99710.31;4444769;32;34174;-85
2022/09/11 07:03:53;;;;;;;2.33;0.85;;;;;;;18.90;65.02;99718.56;4449614;32;34843;-87
2022/09/11 07:06:24;;;;;;;1.90;0.60;;;;;;;18.07;68.25;99705.34;4436048;32;32055;-84
2022/09/11 07:08:53;;;;;;;3.05;0.80;;;;;;;17.43;70.22;99706.16;4447488;32;33915;-84
2022/09/11 07:11:21;;;;;;;2.78;1.05;;;;;;;17.54;70.25;99705.44;4450042;32;33725;-81
2022/09/11 07:13:49;;;;;;;1.52;0.68;;;;;;;18.50;68.00;99705.00;4450305;32;34073;-82
2022/09/11 07:16:16;;;;;;;2.55;0.70;;;;;;;19.20;65.54;99694.31;4453438;32;34244;-85
2022/09/11 07:18:46;;;;;;;2.85;0.90;;;;;;;19.65;63.69;99692.91;4452490;32;32317;-85
2022/09/11 07:21:17;;;;;;;3.87;0.73;;;;;;;19.58;62.59;99697.22;4452324;32;33971;-82
2022/09/11 07:23:48;;;;;;;2.72;0.60;;;;;;;18.20;67.38;99696.78;4448161;32;34893;-84
2022/09/11 07:26:16;;;;;;;2.55;0.70;;;;;;;19.12;65.26;99693.38;4452068;32;33959;-83
2022/09/11 07:28:45;;;;;;;2.47;0.80;;;;;;;18.65;65.53;99695.53;4448309;32;34756;-83
2022/09/11 07:31:16;;;;;;;1.35;0.70;;;;;;;18.78;65.75;99687.81;4440612;32;32487;-82
2022/09/11 07:33:48;;;;;;;3.42;0.88;;;;;;;19.53;63.07;99682.28;4449047;32;34802;-84
2022/09/11 07:36:27;;;;;;;3.33;1.12;;;;;;;19.12;63.79;99680.25;4450490;32;33528;-83
2022/09/11 07:38:56;;;;;;;3.92;1.05;;;;;;;19.66;61.31;99678.88;4450249;32;34059;-81
2022/09/11 07:41:25;;;;;;;2.15;0.98;;;;;;;19.74;61.94;99671.06;4437583;32;32177;-87
2022/09/11 07:43:56;;;;;;;3.17;0.80;;;;;;;18.91;62.87;99687.09;4448147;32;33154;-84
2022/09/11 07:46:27;;;;;;;1.25;0.70;;;;;;;18.14;65.88;99691.47;4450581;32;32813;-81
2022/09/11 07:48:58;;;;;;;1.42;0.68;;;;;;;19.42;62.49;99680.50;4451344;32;33913;-85
2022/09/11 07:51:27;;;;;;;2.25;0.73;;;;;;;18.82;64.09;99687.00;4436771;32;32992;-83
2022/09/11 07:53:57;;;;;;;2.58;0.88;;;;;;;18.84;63.81;99701.88;4451255;32;34141;-83
2022/09/11 07:56:26;;;;;;;1.55;0.80;;;;;;;18.65;63.81;99692.91;4448648;32;34397;-82
2022/09/11 07:58:55;;;;;;;2.22;0.73;;;;;;;19.50;63.07;99683.16;4448016;32;33489;-81
2022/09/11 08:01:25;;;;;;;2.03;0.70;;;;;;;20.18;58.82;99687.06;4448446;32;33693;-82
2022/09/11 08:04:00;;;;;;;3.05;0.70;;;;;;;20.00;60.51;99684.34;4445766;32;33901;-84
2022/09/11 08:06:30;;;;;;;5.30;0.80;;;;;;;19.24;62.89;99691.75;4448095;32;33351;-85
2022/09/11 08:09:00;;;;;;;2.20;0.73;;;;;;;19.35;62.46;99686.56;4451001;32;33946;-85
2022/09/11 08:11:31;;;;;;;1.35;0.80;;;;;;;18.82;64.51;99708.00;4435541;32;32866;-83
2022/09/11 08:13:59;;;;;;;1.92;0.70;;;;;;;19.48;63.02;99694.53;4449257;32;34054;-82
2022/09/11 08:16:28;;;;;;;3.53;0.90;;;;;;;19.94;61.41;99690.47;4450160;32;32154;-82
2022/09/11 08:18:56;;;;;;;2.10;0.82;;;;;;;18.70;65.49;99697.31;4445308;32;34842;-84
2022/09/11 08:21:25;;;;;;;1.50;0.60;;;;;;;18.93;64.71;99692.34;4451276;32;33230;-86
2022/09/11 08:23:52;;;;;;;1.60;0.70;;;;;;;19.87;61.44;99700.94;4456433;32;36296;-83
2022/09/11 08:26:22;;;;;;;6.47;0.70;;;;;;;20.03;60.03;99700.16;4455868;32;34116;-82
2022/09/11 08:28:52;;;;;;;1.70;0.68;;;;;;;20.23;59.37;99695.84;4451407;32;34750;-85
2022/09/11 08:31:21;;;;;;;2.08;0.52;;;;;;;20.47;58.41;99691.53;4454161;32;33474;-83
2022/09/11 08:33:49;;;;;;;2.30;0.80;;;;;;;20.36;59.29;99701.19;4453524;32;35039;-87
2022/09/11 08:36:17;;;;;;;1.40;0.62;;;;;;;20.39;58.31;99688.00;4456007;32;33495;-86
2022/09/11 08:38:46;;;;;;;1.77;0.75;;;;;;;20.49;58.88;99694.19;4458141;32;33846;-84
2022/09/11 08:41:46;;;;;;;2.05;0.68;;;;;;;20.67;58.89;99685.47;4458492;32;34088;-84
2022/09/11 08:44:54;;;;;;;1.52;0.70;;;;;;;20.62;58.85;99686.34;4454911;32;35026;-85
2022/09/11 08:47:27;;;;;;;1.23;0.60;;;;;;;20.92;59.89;99684.66;4424351;32;32963;-85
2022/09/11 08:50:01;;;;;;;3.12;0.90;;;;;;;21.07;58.03;99688.16;4401173;32;33915;-84
2022/09/11 08:52:31;;;;;;;1.20;0.68;;;;;;;20.65;58.22;99690.75;4437317;32;33699;-83
2022/09/11 08:55:39;;;;;;;1.40;0.52;;;;;;;20.82;57.44;99693.41;4458324;32;34704;-85
2022/09/11 08:58:20;;;;;;;1.30;0.80;;;;;;;20.83;57.13;99689.03;4448285;32;34501;-83
2022/09/11 09:01:17;;;;;;;2.20;0.80;;;;;;;20.43;57.99;99685.38;4454704;32;34702;-86
2022/09/11 09:04:28;;;;;;;0.80;0.70;;;;;;;20.11;58.71;99698.44;4452163;32;36393;-84
2022/09/11 09:07:15;;;;;;;1.33;0.70;;;;;;;20.56;59.09;99690.69;4457222;32;34767;-84
2022/09/11 09:10:13;;;;;;;1.08;0.60;;;;;;;20.33;58.33;99695.87;4451739;32;34324;-84
2022/09/11 09:12:58;;;;;;;4.37;0.90;;;;;;;20.26;59.22;99688.84;4437157;32;34652;-84
2022/09/11 09:15:41;;;;;;;1.77;0.65;;;;;;;20.51;59.55;99692.44;4453498;32;33701;-85
2022/09/11 09:18:25;;;;;;;1.55;0.70;;;;;;;21.43;55.12;99686.41;4456030;32;34021;-83
2022/09/11 09:21:01;;;;;;;0.93;0.50;;;;;;;21.20;56.27;99689.91;4456815;32;34763;-83
2022/09/11 09:23:43;;;;;;;2.30;0.73;;;;;;;21.21;57.01;99681.16;4455558;32;33982;-83
2022/09/11 09:26:16;;;;;;;1.58;0.62;;;;;;;21.57;55.52;99680.25;4454404;32;34190;-83
2022/09/11 09:28:57;;;;;;;2.70;0.50;;;;;;;22.04;54.14;99686.28;4456021;32;31823;-86
2022/09/11 09:32:13;;;;;;;1.15;0.45;;;;;;;21.21;55.84;99681.16;4433219;32;33576;-85
2022/09/11 09:35:23;;;;;;;1.80;0.62;;;;;;;21.88;52.74;99680.16;4452434;32;34190;-82
2022/09/11 09:38:02;;;;;;;0.70;0.50;;;;;;;21.45;53.89;99679.41;4436078;32;34693;-84
2022/09/11 09:40:32;;;;;;;1.70;0.70;;;;;;;20.84;55.24;99691.62;4436580;32;34018;-85
2022/09/11 09:43:26;;;;;;;2.50;0.80;;;;;;;20.07;58.77;99691.41;4450592;32;32435;-81
2022/09/11 09:46:11;;;;;;;1.65;0.80;;;;;;;20.98;56.09;99676.75;4431228;32;33358;-83
2022/09/11 09:48:39;;;;;;;2.22;0.73;;;;;;;21.31;53.97;99682.88;4440071;32;32687;-81
2022/09/11 09:51:11;;;;;;;3.00;0.80;;;;;;;21.77;54.37;99677.56;4426762;32;33176;-79
2022/09/11 09:53:41;;;;;;;2.00;0.80;;;;;;;22.09;52.45;99675.69;4446121;32;33671;-80
2022/09/11 09:56:15;;;;;;;2.50;0.88;;;;;;;21.99;52.55;99682.78;4449971;32;32967;-83
2022/09/11 09:59:06;;;;;;;4.35;1.00;;;;;;;21.71;52.86;99677.59;4451268;32;33807;-83
2022/09/11 10:01:42;;;;;;;1.33;0.80;;;;;;;20.82;55.19;99674.97;4450554;32;34246;-84
2022/09/11 10:04:23;;;;;;;1.65;0.98;;;;;;;21.54;53.82;99668.84;4451793;32;33790;-84
2022/09/11 10:07:03;;;;;;;2.10;0.80;;;;;;;21.83;53.30;99674.03;4448318;32;34569;-80
2022/09/11 10:09:32;;;;;;;1.65;0.70;;;;;;;21.61;54.40;99678.47;4453480;32;32691;-82
2022/09/11 10:12:06;;;;;;;1.40;0.70;;;;;;;21.12;54.93;99676.75;4452672;32;34213;-84
2022/09/11 10:14:49;;;;;;;1.35;0.85;;;;;;;20.36;57.35;99677.50;4440297;32;33801;-82
2022/09/11 10:17:20;;;;;;;1.75;0.70;;;;;;;20.61;57.51;99684.59;4454265;32;33852;-87
2022/09/11 10:19:49;;;;;;;0.70;0.62;;;;;;;21.11;55.30;99682.00;4436132;32;33164;-82
2022/09/11 10:22:24;;;;;;;1.48;0.77;;;;;;;21.59;54.30;99669.69;4451485;32;34297;-80
2022/09/11 10:25:02;;;;;;;2.53;0.85;;;;;;;20.27;57.76;99677.47;4454543;32;32861;-83
2022/09/11 10:27:34;;;;;;;1.30;0.80;;;;;;;20.61;58.17;99679.34;4455176;32;34385;-82
2022/09/11 10:30:03;;;;;;;1.62;0.90;;;;;;;19.87;58.70;99683.41;4451652;32;34716;-85
2022/09/11 10:32:35;;;;;;;3.22;0.90;;;;;;;19.78;60.04;99679.00;4452500;32;33684;-82
2022/09/11 10:35:08;;;;;;;3.12;1.10;;;;;;;19.78;59.77;99684.25;4452618;32;33703;-81
2022/09/11 10:37:35;;;;;;;4.20;1.12;;;;;;;20.34;58.56;99680.13;4453567;32;34461;-81
2022/09/11 10:40:07;;;;;;;3.65;1.08;;;;;;;20.48;58.04;99677.53;4454381;32;33995;-80
2022/09/11 10:42:36;;;;;;;2.65;0.82;;;;;;;21.18;57.36;99675.88;4453583;32;34848;-83
2022/09/11 10:45:12;;;;;;;1.90;1.10;;;;;;;20.74;57.75;99679.34;4451926;32;34358;-84
2022/09/11 10:47:40;;;;;;;1.95;0.80;;;;;;;20.30;59.15;99667.84;4451684;32;33823;-80
2022/09/11 10:50:11;;;;;;;1.85;0.70;;;;;;;20.54;59.02;99669.62;4453485;32;33731;-82
2022/09/11 10:52:56;;;;;;;1.35;0.80;;;;;;;20.76;58.16;99662.66;4454867;32;33609;-82
2022/09/11 10:55:26;;;;;;;0.90;0.70;;;;;;;21.45;57.19;99658.31;4450964;32;34213;-82
2022/09/11 10:57:58;;;;;;;2.85;0.95;;;;;;;21.73;55.45;99654.75;4454146;32;34402;-81
2022/09/11 11:00:28;;;;;;;3.65;1.40;;;;;;;22.30;54.52;99640.47;4454297;32;33808;-80
2022/09/11 11:03:16;;;;;;;2.37;1.10;;;;;;;22.90;52.70;99638.28;4455588;32;33939;-82
2022/09/11 11:06:22;;;;;;;2.20;1.00;;;;;;;21.40;54.45;99646.00;4453572;32;34475;-82
2022/09/11 11:08:58;;;;;;;3.55;1.02;;;;;;;21.02;56.37;99644.28;4453408;32;34701;-82
2022/09/11 11:11:32;;;;;;;4.15;1.05;;;;;;;22.37;54.78;99645.69;4445011;32;33824;-81
2022/09/11 11:14:38;;;;;;;4.62;1.10;;;;;;;22.09;53.91;99649.31;4454940;32;34286;-82
2022/09/11 11:17:21;;;;;;;1.60;0.80;;;;;;;23.09;51.69;99632.88;4453738;32;34052;-82
2022/09/11 11:19:58;;;;;;;1.52;0.93;;;;;;;22.63;50.80;99643.78;4454332;32;34021;-81
2022/09/11 11:22:52;;;;;;;1.42;0.80;;;;;;;23.00;50.37;99639.06;4453873;32;34824;-81
2022/09/11 11:25:27;;;;;;;1.55;0.82;;;;;;;22.34;51.23;99636.91;4421130;32;34102;-80
2022/09/11 11:28:13;;;;;;;;;;;;;;;23.23;49.63;99635.41;4454925;32;34282;-79
2022/09/11 11:31:02;;;;;;;2.92;0.65;;;;;;;23.79;48.83;99641.88;4453636;32;34771;-81
2022/09/11 11:34:00;;;;;;;1.08;0.68;;;;;;;22.30;49.41;99646.59;4453062;32;34072;-79
2022/09/11 11:36:33;;;;;;;1.67;0.60;;;;;;;22.40;49.42;99636.88;4456666;32;34033;-77
2022/09/11 11:39:06;;;;;;;3.10;0.90;;;;;;;22.40;49.26;99636.88;4457420;32;33347;-80
2022/09/11 11:41:44;;;;;;;1.33;0.60;;;;;;;22.64;48.93;99624.38;4449855;32;34699;-83
2022/09/11 11:44:15;;;;;;;1.50;0.40;;;;;;;21.89;50.72;99629.19;4442628;32;34104;-82
2022/09/11 11:46:51;;;;;;;1.70;0.65;;;;;;;22.07;51.37;99638.78;4446641;32;34028;-79
2022/09/11 11:49:47;;;;;;;1.30;0.60;;;;;;;21.19;53.06;99635.50;4452166;32;32179;-79
2022/09/11 11:52:30;;;;;;;1.85;0.70;;;;;;;21.43;52.61;99631.06;4456505;32;35205;-81
2022/09/11 11:55:06;;;;;;;2.17;0.77;;;;;;;21.32;53.20;99631.94;4452360;32;33977;-79
2022/09/11 11:57:40;;;;;;;1.30;0.70;;;;;;;21.61;53.51;99636.31;4444301;32;34204;-80
2022/09/11 12:00:12;;;;;;;1.62;0.60;;;;;;;21.78;51.81;99634.50;4444039;32;34410;-79
2022/09/11 12:02:48;;;;;;;1.90;0.73;;;;;;;21.95;50.74;99636.19;4436981;32;34032;-80
2022/09/11 12:05:23;;;;;;;0.70;0.50;;;;;;;21.68;51.72;99645.09;4450983;32;33975;-78